« Back
NWS Peachtree City, Ga » Text Product » MCN Terminal Aerodrome Forecast


Printer-friendly Version
Current Version              Previous Versions:   1  2  3  4  5  6  7  8  9  

Terminal Aerodrome Forecast

658
FTUS42 KFFC 292300
TAFMCN
TAF
KMCN 292320Z 3000/3024 VRB03KT P6SM SCT080 SCT250
     FM301500 14005KT P6SM SCT030 BKN060 PROB30 3017/3023 6SM TSRA
      BKN045CB=

USA.gov is the U.S. government's official web portal to all federal, state and local government web resources and services.